Tiempo atmosférico en la estación meteorológica de Ballobar, Huesca (178 m.)



Fecha
DESCASC
Temp. máxima en grados centígrados (hora)
DESCASC
Temp. mínima en grados centígrados (hora)
DESCASC
Temp. media en grados centígrados
DESCASC
Racha de viento máxima en m/sg (hora)
DESCASC
Velocidad máxima media en intervalos de 10 minutos(hora)
DESCASC
Precipitaciones diarias en mm
DESCASC
Precipitaciones de 00:00 a 06:00 en mm
DESCASC
Precipitaciones de 06:00 a 12:00 en mm
DESCASC
Precipitaciones de 12:00 a 18:00 en mm
DESCASC
Precipitaciones de 18:00 a 24:00 en mm
DESCASC
16-06-2019 30.2 (17:30) 13.1 (06:40) 21.7 7.78 (21:20) 5 (20:20) 0 0 0 0 0
15-06-2019 28.5 (18:30) 14.4 (07:20) 21.4 11.11 (17:50) 6.11 (17:20) 0 0 0 0 0
14-06-2019 28.9 (18:10) 13.2 (03:50) 21 7.5 (21:20) 5.28 (21:20) 0 0 0 0 0
13-06-2019 26.8 (16:40) 12.2 (00:00) 19.5 11.94 (12:50) 6.94 (11:20) 0 0 0 0 0
12-06-2019 23.3 (17:30) 7.6 (00:00) 15.4 14.72 (14:40) 6.67 (00:10) 0 0 0 0 0
11-06-2019 21 (17:50) 11.2 (00:00) 16.1 12.78 (20:40) 8.61 (20:40) 5 1.2 3.2 0.6 0
10-06-2019 26.3 (16:50) 14.9 (00:00) 20.6 11.67 (19:10) 7.78 (17:40) 0 0 0 0 0
09-06-2019 29.8 (18:50) 15.1 (00:00) 22.4 8.89 (23:20) 5.83 (12:40) 0 0 0 0 0
08-06-2019 27.4 (16:30) 9.9 (00:00) 18.6 11.67 (18:50) 6.39 (16:50) 0 0 0 0 0
07-06-2019 25.2 (17:50) 14.5 (00:00) 19.9 14.44 (09:50) 8.89 (09:30) 0 0 0 0 0
06-06-2019 25.6 (14:40) 10.5 (00:00) 18.1 14.44 (18:10) 10 (15:40) 0 0 0 0 0
05-06-2019 21.9 (14:40) 14.7 (00:00) 18.3 16.11 (16:30) 10.28 (16:30) 0 0 0 0 0
04-06-2019 30.9 (15:30) 15.4 (00:00) 23.1 14.17 (18:10) 9.44 (18:10) 0 0 0 0 0
03-06-2019 30.8 (17:10) 15.6 (00:00) 23.2 10.28 (22:00) 6.94 (21:50) 0 0 0 0 0
02-06-2019 32.2 (15:30) 12.9 (00:00) 22.6 10 (16:30) 6.67 (16:30) 0 0 0 0 0
01-06-2019 31.6 (17:00) 12.7 (00:00) 22.2 8.61 (19:00) 6.11 (19:20) 0 0 0 0 0
31-05-2019 29.7 (17:00) 12.2 (00:00) 21 8.61 (19:40) 5.83 (20:00) 0 0 0 0 0
30-05-2019 28.9 (17:20) 9.6 (00:00) 19.3 6.39 (15:30) 3.89 (20:50) 0 0 0 0 0
29-05-2019 25.4 (17:50) 11.8 (00:00) 18.6 15.56 (00:30) 9.72 (01:20) 0 0 0 0 0
28-05-2019 22.8 (15:30) 12.5 (00:00) 17.6 21.94 (18:20) 13.33 (19:20) 0 0 0 0 0
27-05-2019 26.8 (18:20) 10.3 (00:00) 18.5 16.11 (22:00) 10.56 (23:20) 0 0 0 0 0
26-05-2019 26.7 (18:40) 10.4 (00:00) 18.6 11.67 (19:00) 7.5 (20:20) 0 0 0 0 0
25-05-2019 24.8 (17:30) 13.2 (00:00) 19 10.28 (23:30) 6.67 (22:40) 0.4 0 0 0 0.4
24-05-2019 18.8 (00:10) 14 (00:00) 16.4 7.78 (11:40) 5 (01:50) 23.2 4.6 15.2 3.4 0
23-05-2019 29.4 (16:20) 9.2 (00:00) 19.3 10 (23:20) 5.56 (23:20) 1 0 0 0 1
22-05-2019 26.9 (18:20) 8.5 (00:00) 17.7 5.83 (14:40) 3.89 (21:50) 0 0 0 0 0
21-05-2019 26.3 (16:50) 8 (06:20) 17.1 7.78 (16:40) 3.61 (17:00) 0 0 0 0 0

Gráficas

Temp. máximas Temp. mínimas Temp. medias Precipitaciones Rachas de viento máximas Velocidades máximas media en intervalos de 10 minutos

Datos horarios

Fecha y hora oficial Temperatura (ºC) Velocidad del viento (km/h) Dirección del viento Racha (km/h) Dirección de racha Precipitación (mm) Presión (hPa) Tendencia (hPa) Humedad (%)
2019-06-19 23:00:00 27 0 Calma 24 Sudeste 0 -- -- 46
2019-06-19 22:00:00 28.9 9 Este 17 Este 0 -- -- 38
2019-06-19 21:00:00 30.3 3 Oeste 10 Noroeste 0 -- -- 34
2019-06-19 20:00:00 30.8 4 Nordeste 13 Este 0 -- -- 35
2019-06-19 19:00:00 31.7 7 Nordeste 20 Norte 0 -- -- 31
2019-06-19 18:00:00 32.7 7 Norte 21 Noroeste 0 -- -- 29
2019-06-19 17:00:00 32.3 12 Norte 24 Noroeste 0 -- -- 30
2019-06-19 16:00:00 32.2 14 Nordeste 23 Este 0 -- -- 30
2019-06-19 15:00:00 31.9 10 Nordeste -- -- -- -- -- 30
2019-06-19 14:00:00 30.8 13 Nordeste 25 Nordeste 0 -- -- 32
2019-06-19 13:00:00 29 8 Este -- -- -- -- -- 36
2019-06-19 12:00:00 -- -- -- -- -- -- -- -- --
2019-06-19 11:00:00 -- -- -- -- -- -- -- -- --
2019-06-19 10:00:00 -- -- -- -- -- -- -- -- --
2019-06-19 09:00:00 -- -- -- -- -- -- -- -- --
2019-06-19 08:00:00 -- -- -- -- -- -- -- -- --
2019-06-19 07:00:00 -- -- -- -- -- -- -- -- --
2019-06-19 06:00:00 -- -- -- -- -- -- -- -- --
2019-06-19 05:00:00 -- -- -- -- -- -- -- -- --
2019-06-19 04:00:00 -- -- -- -- -- -- -- -- --
2019-06-19 03:00:00 -- -- -- -- -- -- -- -- --
2019-06-19 02:00:00 -- -- -- -- -- -- -- -- --
2019-06-19 01:00:00 -- -- -- -- -- -- -- -- --
2019-06-19 00:00:00 -- -- -- -- -- -- -- -- --
2019-06-18 23:00:00 -- -- -- -- -- -- -- -- --
2019-06-18 22:00:00 -- -- -- -- -- -- -- -- --
2019-06-18 21:00:00 -- -- -- -- -- -- -- -- --
2019-06-18 20:00:00 -- -- -- -- -- -- -- -- --
2019-06-18 19:00:00 28.6 29 Este 46 Este 0 -- -- 36
2019-06-18 18:00:00 30.4 26 Este 44 Este 0 -- -- 37
2019-06-18 17:00:00 32 24 Este 42 Este 0 -- -- 31
2019-06-18 16:00:00 32.8 23 Este 40 Este 0 -- -- 30
2019-06-18 15:00:00 32.4 22 Este 36 Este 0 -- -- 31
2019-06-18 14:00:00 31.6 19 Este 35 Este 0 -- -- 34
2019-06-18 13:00:00 29.5 21 Este 33 Este 0 -- -- 35
2019-06-18 12:00:00 27.6 20 Este 35 Este 0 -- -- 37
2019-06-18 11:00:00 25.4 21 Este 32 Nordeste 0 -- -- 40
2019-06-18 10:00:00 22.2 3 Este 13 Noroeste 0 -- -- 49
2019-06-18 09:00:00 20.1 6 Norte 16 Nordeste 0 -- -- 51
2019-06-18 08:00:00 19.3 6 Nordeste 13 Este 0 -- -- 56
2019-06-18 07:00:00 17.4 10 Nordeste 19 Este 0 -- -- 56
2019-06-18 06:00:00 18.5 12 Este 23 Este 0 -- -- 51
2019-06-18 05:00:00 18.6 12 Nordeste 20 Nordeste 0 -- -- 52
2019-06-18 04:00:00 19.6 11 Este 19 Nordeste 0 -- -- 49
2019-06-18 03:00:00 20.1 10 Este 23 Este 0 -- -- 49
2019-06-18 02:00:00 20.6 10 Nordeste 17 Nordeste 0 -- -- 48
2019-06-18 01:00:00 21.9 8 Nordeste 21 Nordeste 0 -- -- 43
2019-06-18 00:00:00 22.1 13 Este 19 Nordeste 0 -- -- 47
2019-06-17 23:00:00 24.4 12 Este 26 Este 0 -- -- 43
2019-06-17 22:00:00 25.8 13 Este 32 Sudeste 0 -- -- 41
2019-06-17 21:00:00 28.2 19 Sudeste 36 Este 0 -- -- 37
2019-06-17 20:00:00 30.1 23 Sudeste 37 Sudeste 0 -- -- 35
2019-06-17 19:00:00 32.2 19 Sudeste 35 Nordeste 0 -- -- 34
2019-06-17 18:00:00 33.5 13 Nordeste 22 Este 0 -- -- 24
2019-06-17 17:00:00 33.4 14 Nordeste 22 Nordeste 0 -- -- 24
2019-06-17 16:00:00 32.8 13 Este 24 Este 0 -- -- 24
2019-06-17 15:00:00 31.6 10 Nordeste 18 Nordeste 0 -- -- 26
2019-06-17 14:00:00 30.1 7 Nordeste 18 Este 0 -- -- 33
2019-06-17 13:00:00 28.6 10 Este 15 Este 0 -- -- 36
2019-06-17 12:00:00 26.4 7 Nordeste 20 Este 0 -- -- 44
2019-06-17 11:00:00 24.6 13 Este 17 Nordeste 0 -- -- 48
2019-06-17 10:00:00 21.9 8 Este 13 Este 0 -- -- 56
2019-06-17 09:00:00 19.5 7 Nordeste 14 Nordeste 0 -- -- 64
2019-06-17 08:00:00 17 0 Calma 4 Sudeste 0 -- -- 69
2019-06-17 07:00:00 14.1 2 Nordeste 5 Nordeste 0 -- -- 76
2019-06-17 06:00:00 14.2 4 Oeste 6 Oeste 0 -- -- 78
2019-06-17 05:00:00 14.9 0 Calma 5 Noroeste 0 -- -- 74
2019-06-17 04:00:00 16.1 0 Calma 11 Nordeste 0 -- -- 72
2019-06-17 03:00:00 17.7 7 Nordeste 13 Nordeste 0 -- -- 68
2019-06-17 02:00:00 18.1 0 Calma 6 Nordeste 0 -- -- 63
2019-06-17 01:00:00 19.2 0 Calma 5 Nordeste 0 -- -- 60
2019-06-17 00:00:00 21.5 5 Este 16 Nordeste 0 -- -- 53
2019-06-16 23:00:00 22.9 10 Sur 24 Sur 0 -- -- 48
2019-06-16 22:00:00 24.6 9 Sur 28 Sudeste 0 -- -- 43
2019-06-16 21:00:00 26.6 12 Sudeste 24 Sudeste 0 -- -- 40
2019-06-16 20:00:00 28.2 16 Este 25 Este 0 -- -- 38
2019-06-16 19:00:00 29.2 10 Nordeste 18 Este 0 -- -- 31
2019-06-16 18:00:00 30.2 12 Nordeste 22 Este 0 -- -- 28
2019-06-16 17:00:00 29.6 9 Nordeste 21 Este 0 -- -- 30
2019-06-16 16:00:00 28.8 9 Nordeste 20 Este 0 -- -- 32
2019-06-16 15:00:00 28.2 14 Este 26 Este 0 -- -- 35
2019-06-16 14:00:00 27.3 13 Este 20 Este 0 -- -- 37
2019-06-16 13:00:00 25.4 6 Nordeste 16 Nordeste 0 -- -- 43
2019-06-16 12:00:00 23.2 8 Nordeste 17 Nordeste 0 -- -- 52
2019-06-16 11:00:00 22.1 8 Este 12 Este 0 -- -- 59
2019-06-16 10:00:00 19.4 5 Este 12 Este 0 -- -- 70
2019-06-16 09:00:00 17.9 7 Nordeste 11 Nordeste 0 -- -- 70
2019-06-16 08:00:00 15 4 Este 6 Este 0 -- -- 70
2019-06-16 07:00:00 13.1 2 Este 3 Este 0 -- -- 82
2019-06-16 06:00:00 13.6 0 Calma 7 Noroeste 0 -- -- 78
2019-06-16 05:00:00 14.5 3 Noroeste 9 Noroeste 0 -- -- 77
2019-06-16 04:00:00 15.9 4 Oeste 12 Oeste 0 -- -- 67
2019-06-16 03:00:00 17.3 9 Oeste 14 Sudoeste 0 -- -- 61
2019-06-16 02:00:00 18.2 4 Oeste 16 Nordeste 0 -- -- 48
2019-06-16 01:00:00 19.5 5 Nordeste 22 Oeste 0 -- -- 46
2019-06-16 00:00:00 20.9 17 Oeste 24 Oeste 0 -- -- 40
2019-06-15 23:00:00 20.5 8 Oeste 13 Oeste 0 -- -- 42
2019-06-15 22:00:00 22.7 10 Oeste 15 Oeste 0 -- -- 36
2019-06-15 21:00:00 26 6 Noroeste 28 Oeste 0 -- -- 30
2019-06-15 20:00:00 27.4 15 Noroeste 28 Noroeste 0 -- -- 27
2019-06-15 19:00:00 27.9 17 Oeste 34 Oeste 0 -- -- 26
2019-06-15 18:00:00 28.1 18 Noroeste 40 Oeste 0 -- -- 25
2019-06-15 17:00:00 27.9 16 Oeste 31 Oeste 0 -- -- 27
2019-06-15 16:00:00 27.3 13 Oeste 35 Oeste 0 -- -- 27
2019-06-15 15:00:00 27 12 Oeste 35 Oeste 0 -- -- 29
2019-06-15 14:00:00 26 18 Noroeste 35 Oeste 0 -- -- 31
2019-06-15 13:00:00 24.8 19 Noroeste 28 Noroeste 0 -- -- 37
2019-06-15 12:00:00 23.1 9 Noroeste 18 Oeste 0 -- -- 47
2019-06-15 11:00:00 20.9 7 Sudoeste 16 Oeste 0 -- -- 54
2019-06-15 10:00:00 19.4 6 Oeste 14 Sudoeste 0 -- -- 59
2019-06-15 09:00:00 18.2 4 Oeste 14 Oeste 0 -- -- 64
2019-06-15 08:00:00 16.5 3 Sudeste 7 Oeste 0 -- -- 70
2019-06-15 07:00:00 14.6 7 Oeste 23 Sudoeste 0 -- -- 76
2019-06-15 06:00:00 15.7 19 Sudoeste 25 Sudoeste 0 -- -- 72
2019-06-15 05:00:00 15.7 13 Oeste 22 Noroeste 0 -- -- 76
2019-06-15 04:00:00 17.1 14 Oeste 24 Noroeste 0 -- -- 71
2019-06-15 03:00:00 17.1 6 Oeste 13 Sudoeste 0 -- -- 71
2019-06-15 02:00:00 18.6 2 Este 15 Oeste 0 -- -- 65
2019-06-15 01:00:00 20.1 4 Nordeste 12 Nordeste 0 -- -- 61
2019-06-15 00:00:00 21.8 4 Este 16 Este 0 -- -- 54
2019-06-14 23:00:00 23.6 13 Este 22 Este 0 -- -- 50
2019-06-14 22:00:00 25.4 15 Este 27 Sudeste 0 -- -- 47
2019-06-14 21:00:00 26.8 12 Este 18 Nordeste 0 -- -- 42
2019-06-14 20:00:00 27.6 13 Nordeste 20 Nordeste 0 -- -- 39
2019-06-14 19:00:00 28.3 15 Este 23 Este 0 -- -- 38
2019-06-14 18:00:00 28.8 9 Este 17 Este 0 -- -- 37
2019-06-14 17:00:00 28.4 7 Nordeste 20 Noroeste 0 -- -- 36
2019-06-14 16:00:00 27.2 10 Oeste 27 Norte 0 -- -- 38
2019-06-14 15:00:00 25.5 9 Nordeste 18 Nordeste 0 -- -- 42
2019-06-14 14:00:00 24.5 9 Este 23 Sudoeste 0 -- -- 41
2019-06-14 13:00:00 23.9 12 Sudoeste 27 Sudoeste 0 -- -- 41
2019-06-14 12:00:00 22.2 9 Oeste 20 Sudoeste 0 -- -- 43
2019-06-14 11:00:00 20.4 5 Oeste 12 Noroeste 0 -- -- 48
2019-06-14 10:00:00 18.6 6 Nordeste 17 Noroeste 0 -- -- 52
2019-06-14 09:00:00 19.3 4 Noroeste 9 Oeste 0 -- -- 47
2019-06-14 08:00:00 16.4 4 Sudoeste 9 Nordeste 0 -- -- 53
2019-06-14 07:00:00 15.1 5 Oeste 15 Sudoeste 0 -- -- 54
2019-06-14 06:00:00 14.9 8 Oeste 17 Sudoeste 0 -- -- 55
2019-06-14 05:00:00 13.9 5 Sur 9 Oeste 0 -- -- 56
2019-06-14 04:00:00 13.2 2 Sudoeste 9 Oeste 0 -- -- 56
2019-06-14 03:00:00 14 6 Oeste 9 Oeste 0 -- -- 51
2019-06-14 02:00:00 14.5 4 Oeste 7 Oeste 0 -- -- 51
2019-06-14 01:00:00 15.3 0 Calma 3 Oeste 0 -- -- 47
2019-06-14 00:00:00 16.7 3 Sudeste 9 Nordeste 0 -- -- 45
2019-06-13 23:00:00 18.3 0 Calma 17 Este 0 -- -- 40
2019-06-13 22:00:00 20.5 12 Este 21 Este 0 -- -- 34
2019-06-13 21:00:00 22.3 14 Este 35 Sudeste 0 -- -- 36
2019-06-13 20:00:00 23.8 17 Sudeste 33 Sudeste 0 -- -- 35
2019-06-13 19:00:00 22.5 16 Este 43 Sudeste 0 -- -- 42
2019-06-13 18:00:00 23.1 21 Sudeste 37 Sudeste 0 -- -- 46
2019-06-13 17:00:00 25.6 21 Este 35 Este 0 -- -- 44
2019-06-13 16:00:00 26.5 19 Este 37 Este 0 -- -- 43
2019-06-13 15:00:00 25.2 22 Este 37 Este 0 -- -- 44
2019-06-13 14:00:00 24.2 20 Este 40 Este 0 -- -- 49
2019-06-13 13:00:00 23 24 Este 43 Este 0 -- -- 49
2019-06-13 12:00:00 22 23 Este 42 Este 0 -- -- 53
2019-06-13 11:00:00 20.6 21 Este 37 Este 0 -- -- 57
2019-06-13 10:00:00 18.6 18 Este 30 Este 0 -- -- 60
2019-06-13 09:00:00 16 21 Este 30 Este 0 -- -- 64
2019-06-13 08:00:00 13.5 10 Nordeste 18 Nordeste 0 -- -- 71
2019-06-13 07:00:00 12.2 9 Este 18 Este 0 -- -- 71
2019-06-13 06:00:00 12.5 10 Este 19 Este 0 -- -- 67
2019-06-13 05:00:00 13 9 Nordeste 18 Este 0 -- -- 67
2019-06-13 04:00:00 13.1 13 Nordeste 26 Este 0 -- -- 66
2019-06-13 03:00:00 13.5 13 Este 19 Nordeste 0 -- -- 60
2019-06-13 02:00:00 14.7 10 Este 25 Sudeste 0 -- -- 60
2019-06-13 01:00:00 14.9 12 Nordeste 16 Nordeste 0 -- -- 61
2019-06-13 00:00:00 16.7 11 Sudoeste 21 Sudeste 0 -- -- 49
2019-06-12 23:00:00 17.9 14 Sudeste 24 Sudeste 0 -- -- 45
2019-06-12 22:00:00 19.3 10 Sudeste 26 Sudeste 0 -- -- 43
2019-06-12 21:00:00 21.6 17 Este 27 Este 0 -- -- 37
2019-06-12 20:00:00 22.4 15 Este 24 Este 0 -- -- 33
2019-06-12 19:00:00 22.7 17 Este 25 Este 0 -- -- 32
2019-06-12 18:00:00 23 11 Este 23 Nordeste 0 -- -- 31
2019-06-12 17:00:00 23.1 13 Nordeste 24 Este 0 -- -- 33
2019-06-12 16:00:00 22.8 12 Nordeste 24 Este 0 -- -- 32
2019-06-12 15:00:00 21.8 10 Oeste 53 Sudoeste 0 -- -- 32
2019-06-12 14:00:00 20.6 9 Sur 22 Sur 0 -- -- 36
2019-06-12 13:00:00 19.7 10 Noroeste 19 Sudoeste 0 -- -- 36
2019-06-12 12:00:00 18.5 9 Noroeste 24 Noroeste 0 -- -- 39
2019-06-12 11:00:00 16.3 13 Noroeste 24 Oeste 0 -- -- 47
2019-06-12 10:00:00 14.9 6 Noroeste 21 Oeste 0 -- -- 53
2019-06-12 09:00:00 13.2 7 Noroeste 13 Noroeste 0 -- -- 60
2019-06-12 08:00:00 11 4 Este 9 Nordeste 0 -- -- 72
2019-06-12 07:00:00 8.5 3 Sudoeste 14 Oeste 0 -- -- 78
2019-06-12 06:00:00 8 12 Sudoeste 14 Sudoeste 0 -- -- 78
2019-06-12 05:00:00 8.6 6 Oeste 15 Oeste 0 -- -- 76
2019-06-12 04:00:00 9.3 8 Oeste 19 Oeste 0 -- -- 73
2019-06-12 03:00:00 11.8 13 Oeste 34 Oeste 0 -- -- 62
2019-06-12 02:00:00 12.6 20 Oeste 35 Oeste 0 -- -- 59
2019-06-12 01:00:00 13.2 22 Oeste 40 Oeste 0 -- -- 58
2019-06-12 00:00:00 14 25 Oeste 40 Oeste 0 -- -- 56
2019-06-11 23:00:00 14.5 20 Oeste 41 Oeste 0 -- -- 52
2019-06-11 22:00:00 15.6 16 Oeste 40 Oeste 0 -- -- 48
2019-06-11 21:00:00 17.5 23 Oeste 46 Oeste 0 -- -- 41
2019-06-11 20:00:00 19.5 27 Oeste 42 Oeste 0 -- -- 37
2019-06-11 19:00:00 20.7 24 Oeste 41 Oeste 0 -- -- 37
2019-06-11 18:00:00 20.9 19 Oeste 33 Sur 0 -- -- 36
2019-06-11 17:00:00 17.7 19 Sudoeste 33 Sudoeste 0 -- -- 62
2019-06-11 16:00:00 15.8 20 Sudoeste 29 Sudoeste 0 -- -- 72
2019-06-11 15:00:00 15.6 11 Oeste 21 Sudoeste 0 -- -- 71
2019-06-11 14:00:00 13.7 13 Sudoeste 19 Sudoeste 0.2 -- -- 79
2019-06-11 13:00:00 12.7 9 Oeste 21 Oeste 0.4 -- -- 85
2019-06-11 12:00:00 12.1 9 Oeste 15 Sudoeste 0.8 -- -- 87
2019-06-11 11:00:00 11.7 11 Sudoeste 18 Oeste 0 -- -- 85
2019-06-11 10:00:00 11.8 10 Oeste 19 Oeste 0 -- -- 83
2019-06-11 09:00:00 11.6 4 Oeste 13 Oeste 0.6 -- -- 91
2019-06-11 08:00:00 11.3 12 Sudoeste 20 Sudoeste 1 -- -- 88
2019-06-11 07:00:00 11.8 6 Oeste 12 Oeste 0.8 -- -- 87
2019-06-11 06:00:00 12.1 8 Sudoeste 22 Oeste 1.2 -- -- 78
2019-06-11 05:00:00 14.4 18 Oeste 27 Oeste 0 -- -- 58
2019-06-11 04:00:00 15.7 5 Noroeste 13 Oeste 0 -- -- 48
2019-06-11 03:00:00 16.8 5 Norte 12 Este 0 -- -- 44
2019-06-11 02:00:00 16.9 5 Nordeste 15 Sudoeste 0 -- -- 44
2019-06-11 01:00:00 17 6 Sudoeste 30 Sudoeste 0 -- -- 43
2019-06-11 00:00:00 17.6 25 Sudoeste 35 Sudoeste 0 -- -- 40
2019-06-10 23:00:00 18.6 26 Sudoeste 34 Sudoeste 0 -- -- 37
2019-06-10 22:00:00 19.6 19 Sudoeste 34 Oeste 0 -- -- 37
2019-06-10 21:00:00 21.5 23 Oeste 41 Oeste 0 -- -- 32
2019-06-10 20:00:00 23.4 21 Oeste 42 Oeste 0 -- -- 31
2019-06-10 19:00:00 24.3 19 Noroeste 40 Oeste 0 -- -- 31
2019-06-10 18:00:00 25.8 21 Noroeste 39 Oeste 0 -- -- 29
2019-06-10 17:00:00 26 26 Oeste 41 Oeste 0 -- -- 29
2019-06-10 16:00:00 25.8 23 Noroeste 36 Oeste 0 -- -- 32
2019-06-10 15:00:00 25.6 16 Noroeste 34 Noroeste 0 -- -- 34
2019-06-10 14:00:00 24.5 14 Oeste 32 Oeste 0 -- -- 38
2019-06-10 13:00:00 23.3 14 Noroeste 31 Oeste 0 -- -- 41
2019-06-10 12:00:00 21.7 18 Noroeste 31 Noroeste 0 -- -- 45
2019-06-10 11:00:00 20.2 17 Oeste 28 Noroeste 0 -- -- 49
2019-06-10 10:00:00 18.6 17 Oeste 29 Oeste 0 -- -- 53
2019-06-10 09:00:00 16.9 21 Noroeste 34 Oeste 0 -- -- 60
2019-06-10 08:00:00 16 11 Oeste 23 Oeste 0 -- -- 64
2019-06-10 07:00:00 14.9 9 Oeste 20 Oeste 0 -- -- 69
2019-06-10 06:00:00 15.7 10 Oeste 27 Oeste 0 -- -- 67
2019-06-10 05:00:00 16.5 12 Oeste 22 Oeste 0 -- -- 66
2019-06-10 04:00:00 17 9 Oeste 21 Oeste 0 -- -- 66
2019-06-10 03:00:00 17.4 7 Oeste 13 Noroeste 0 -- -- 65
2019-06-10 02:00:00 18.7 4 Oeste 9 Noroeste 0 -- -- 60
2019-06-10 01:00:00 20.6 6 Noroeste 18 Noroeste 0 -- -- 54
2019-06-10 00:00:00 22.3 9 Oeste 32 Oeste 0 -- -- 45
2019-06-09 23:00:00 23.1 13 Sudoeste 24 Sur 0 -- -- 26
2019-06-09 22:00:00 25 12 Sur 28 Sur 0 -- -- 25
2019-06-09 21:00:00 26.9 12 Este 22 Este 0 -- -- 27
2019-06-09 20:00:00 28.7 11 Este 18 Este 0 -- -- 29
2019-06-09 19:00:00 29.8 9 Este 18 Este 0 -- -- 27
2019-06-09 18:00:00 29.4 13 Nordeste 21 Este 0 -- -- 27
2019-06-09 17:00:00 29.1 12 Este 23 Este 0 -- -- 28
2019-06-09 16:00:00 28.5 12 Este 24 Este 0 -- -- 25
2019-06-09 15:00:00 28.1 16 Este 27 Este 0 -- -- 25
2019-06-09 14:00:00 27.1 17 Este 31 Este 0 -- -- 26
2019-06-09 13:00:00 26.6 15 Sudeste 31 Este 0 -- -- 25
2019-06-09 12:00:00 25 17 Este 24 Nordeste 0 -- -- 32
2019-06-09 11:00:00 22.8 11 Este 17 Este 0 -- -- 37
2019-06-09 10:00:00 20.7 6 Nordeste 13 Nordeste 0 -- -- 47
2019-06-09 09:00:00 19 4 Nordeste 11 Nordeste 0 -- -- 46
2019-06-09 08:00:00 15.7 4 Sur 8 Sudeste 0 -- -- 65
2019-06-09 07:00:00 15.1 7 Oeste 10 Oeste 0 -- -- 58
2019-06-09 06:00:00 15.4 3 Nordeste 7 Noroeste 0 -- -- 60
2019-06-09 05:00:00 16.1 4 Noroeste 9 Nordeste 0 -- -- 61
2019-06-09 04:00:00 16.9 6 Nordeste 14 Este 0 -- -- 54
2019-06-09 03:00:00 17.6 11 Este 18 Este 0 -- -- 51
2019-06-09 02:00:00 18.2 10 Este 19 Este 0 -- -- 49
2019-06-09 01:00:00 18.4 6 Este 18 Nordeste 0 -- -- 45
2019-06-09 00:00:00 18.8 10 Nordeste 21 Nordeste 0 -- -- 44
2019-06-08 23:00:00 19.6 12 Este 22 Este 0 -- -- 42
2019-06-08 22:00:00 20.3 12 Este 23 Sudeste 0 -- -- 42
2019-06-08 21:00:00 21.8 10 Sudeste 32 Sur 0 -- -- 35
2019-06-08 20:00:00 22.8 16 Sudeste 38 Sudeste 0 -- -- 35
2019-06-08 19:00:00 23.6 18 Sudeste 42 Sur 0 -- -- 35
2019-06-08 18:00:00 25 17 Sudeste 41 Sudeste 0 -- -- 34
2019-06-08 17:00:00 27 18 Sudeste 38 Este 0 -- -- 30
2019-06-08 16:00:00 26.7 19 Este 36 Este 0 -- -- 34
2019-06-08 15:00:00 25.7 18 Nordeste 31 Este 0 -- -- 39
2019-06-08 14:00:00 24.5 15 Este 29 Este 0 -- -- 37
2019-06-08 13:00:00 23.2 14 Este 23 Nordeste 0 -- -- 41
2019-06-08 12:00:00 21.1 8 Nordeste 19 Este 0 -- -- 46
2019-06-08 11:00:00 19.8 8 Este 14 Este 0 -- -- 48
2019-06-08 10:00:00 17.5 6 Nordeste 13 Nordeste 0 -- -- 53
2019-06-08 09:00:00 16.3 5 Este 10 Oeste 0 -- -- 57
2019-06-08 08:00:00 13.5 5 Sudoeste 10 Sudoeste 0 -- -- 60
2019-06-08 07:00:00 10.7 6 Noroeste 12 Oeste 0 -- -- 64
2019-06-08 06:00:00 11.1 10 Oeste 17 Sudoeste 0 -- -- 60
2019-06-08 05:00:00 11.2 6 Oeste 10 Oeste 0 -- -- 62
2019-06-08 04:00:00 12.4 4 Sudoeste 6 Sudoeste 0 -- -- 58
2019-06-08 03:00:00 12 3 Sudoeste 7 Sudoeste 0 -- -- 57
2019-06-08 02:00:00 12.7 5 Noroeste 9 Nordeste 0 -- -- 54
2019-06-08 01:00:00 14.3 3 Oeste 9 Noroeste 0 -- -- 48
2019-06-08 00:00:00 15 4 Oeste 9 Noroeste 0 -- -- 47
2019-06-07 23:00:00 17 3 Sur 7 Oeste 0 -- -- 41
2019-06-07 22:00:00 19.8 5 Oeste 13 Oeste 0 -- -- 34
2019-06-07 21:00:00 22.9 9 Noroeste 29 Oeste 0 -- -- 28
2019-06-07 20:00:00 24.3 12 Noroeste 28 Noroeste 0 -- -- 26
2019-06-07 19:00:00 24.8 15 Noroeste 36 Oeste 0 -- -- 25
2019-06-07 18:00:00 24.8 17 Noroeste 35 Oeste 0 -- -- 26
2019-06-07 17:00:00 24.5 20 Noroeste 40 Oeste 0 -- -- 26
2019-06-07 16:00:00 24.5 25 Oeste 40 Oeste 0 -- -- 22
2019-06-07 15:00:00 23.5 19 Noroeste 35 Noroeste 0 -- -- 31
2019-06-07 14:00:00 23 21 Oeste 41 Oeste 0 -- -- 29
2019-06-07 13:00:00 22 18 Oeste 39 Oeste 0 -- -- 35
2019-06-07 12:00:00 20.1 8 Norte 26 Noroeste 0 -- -- 45
2019-06-07 11:00:00 18.2 17 Oeste 36 Oeste 0 -- -- 56
2019-06-07 10:00:00 15.9 27 Oeste 52 Oeste 0 -- -- 67
2019-06-07 09:00:00 18.8 4 Nordeste 16 Este 0 -- -- 69
2019-06-07 08:00:00 16.1 13 Nordeste 26 Este 0 -- -- 76
2019-06-07 07:00:00 14.8 14 Este 24 Este 0 -- -- 80
2019-06-07 06:00:00 14.8 12 Este 31 Este 0 -- -- 79
2019-06-07 05:00:00 15.6 17 Este 27 Este 0 -- -- 75
2019-06-07 04:00:00 16.3 19 Este 26 Este 0 -- -- 71
2019-06-07 03:00:00 16.6 14 Este 30 Este 0 -- -- 70
2019-06-07 02:00:00 16.7 20 Este 31 Este 0 -- -- 67
2019-06-07 01:00:00 18.3 18 Este 37 Este 0 -- -- 70
2019-06-07 00:00:00 18.5 23 Este 37 Este 0 -- -- 69
2019-06-06 23:00:00 18.4 18 Este 40 Este 0 -- -- 67
2019-06-06 22:00:00 19.3 23 Este 44 Este 0 -- -- 58
2019-06-06 21:00:00 20.6 28 Este 42 Este 0 -- -- 53
2019-06-06 20:00:00 22.4 23 Este 42 Sudeste 0 -- -- 48
2019-06-06 19:00:00 23.5 30 Este 52 Este 0 -- -- 42
2019-06-06 18:00:00 23.2 31 Este 48 Este 0 -- -- 45
2019-06-06 17:00:00 23.3 24 Sudeste 49 Sudeste 0 -- -- 45
2019-06-06 16:00:00 24.4 23 Este 51 Este 0 -- -- 40
2019-06-06 15:00:00 25.5 26 Este 39 Este 0 -- -- 33
2019-06-06 14:00:00 24.7 18 Este 41 Este 0 -- -- 37
2019-06-06 13:00:00 22.9 16 Este 26 Este 0 -- -- 40
2019-06-06 12:00:00 21 14 Este 27 Este 0 -- -- 43
2019-06-06 11:00:00 18.5 6 Nordeste 17 Este 0 -- -- 53
2019-06-06 10:00:00 17.3 13 Este 19 Este 0 -- -- 52
2019-06-06 09:00:00 15.9 5 Nordeste 9 Este 0 -- -- 62
2019-06-06 08:00:00 12.8 3 Oeste 9 Oeste 0 -- -- 71
2019-06-06 07:00:00 10.8 6 Oeste 13 Oeste 0 -- -- 76
2019-06-06 06:00:00 10.5 7 Oeste 9 Oeste 0 -- -- 75
2019-06-06 05:00:00 11.5 4 Noroeste 8 Oeste 0 -- -- 69
2019-06-06 04:00:00 13.7 6 Oeste 12 Sudoeste 0 -- -- 61
2019-06-06 03:00:00 13.6 11 Sudoeste 22 Sudoeste 0 -- -- 62
2019-06-06 02:00:00 13.3 10 Sudoeste 14 Sudoeste 0 -- -- 58
2019-06-06 01:00:00 13.3 9 Sudoeste 13 Sudoeste 0 -- -- 59
2019-06-06 00:00:00 15.6 5 Oeste 23 Oeste 0 -- -- 53
2019-06-05 23:00:00 16.4 11 Oeste 28 Noroeste 0 -- -- 50
2019-06-05 22:00:00 17.3 17 Oeste 39 Oeste 0 -- -- 47
2019-06-05 21:00:00 18.9 26 Oeste 50 Oeste 0 -- -- 43
2019-06-05 20:00:00 20.1 28 Oeste 54 Oeste 0 -- -- 39
2019-06-05 19:00:00 20.6 36 Oeste 53 Oeste 0 -- -- 42
2019-06-05 18:00:00 21.1 31 Oeste 54 Oeste 0 -- -- 43
2019-06-05 17:00:00 21.3 35 Oeste 58 Oeste 0 -- -- 41
2019-06-05 16:00:00 21 32 Oeste 54 Oeste 0 -- -- 43
2019-06-05 15:00:00 21.1 32 Oeste 55 Sudoeste 0 -- -- 45
2019-06-05 14:00:00 19.7 23 Oeste 35 Oeste 0 -- -- 56
2019-06-05 13:00:00 20.1 18 Noroeste 29 Noroeste 0 -- -- 60
2019-06-05 12:00:00 19.6 10 Noroeste 26 Sudoeste 0 -- -- 62
2019-06-05 11:00:00 16.7 20 Oeste 33 Sudoeste 0 -- -- 70
2019-06-05 10:00:00 17 20 Sudoeste 32 Sudoeste 0 -- -- 67
2019-06-05 09:00:00 15.9 12 Sur 24 Sudoeste 0 -- -- 69
2019-06-05 08:00:00 14.8 19 Sudoeste 25 Sudoeste 0 -- -- 72
2019-06-05 07:00:00 15.1 12 Sudoeste 21 Sudoeste 0 -- -- 74
2019-06-05 06:00:00 16.8 7 Sudeste 20 Sudeste 0 -- -- 74
2019-06-05 05:00:00 17.4 9 Este 20 Este 0 -- -- 78
2019-06-05 04:00:00 18 16 Este 25 Este 0 -- -- 70
2019-06-05 03:00:00 18.7 17 Este 25 Este 0 -- -- 60
2019-06-05 02:00:00 18.9 15 Este 25 Este 0 -- -- 58
2019-06-05 01:00:00 20.3 13 Este 46 Este 0 -- -- 52
2019-06-05 00:00:00 21.2 30 Este 48 Este 0 -- -- 49
2019-06-04 23:00:00 21.3 22 Este 41 Sudeste 0 -- -- 49
2019-06-04 22:00:00 21.8 16 Este 41 Este 0 -- -- 51
2019-06-04 21:00:00 22.9 28 Este 46 Este 0 -- -- 54
2019-06-04 20:00:00 24.8 26 Este 46 Sudeste 0 -- -- 51
2019-06-04 19:00:00 26.2 28 Este 51 Este 0 -- -- 46
2019-06-04 18:00:00 28.7 30 Este 49 Este 0 -- -- 41
2019-06-04 17:00:00 30.5 26 Este 44 Este 0 -- -- 36
2019-06-04 16:00:00 30.5 28 Este 41 Este 0 -- -- 38
2019-06-04 15:00:00 30.5 20 Este 33 Este 0 -- -- 38
2019-06-04 14:00:00 29.4 18 Este 35 Este 0 -- -- 40
2019-06-04 13:00:00 27.4 18 Este 27 Este 0 -- -- 44
2019-06-04 12:00:00 25.5 21 Este 30 Este 0 -- -- 50
2019-06-04 11:00:00 23.6 16 Nordeste 27 Este 0 -- -- 54
2019-06-04 10:00:00 22 16 Nordeste 23 Este 0 -- -- 53
2019-06-04 09:00:00 19.2 4 Nordeste 10 Nordeste 0 -- -- 55
2019-06-04 08:00:00 17.3 4 Nordeste 8 Nordeste 0 -- -- 59
2019-06-04 07:00:00 15.6 4 Nordeste 12 Nordeste 0 -- -- 64
2019-06-04 06:00:00 16 3 Nordeste 11 Nordeste 0 -- -- 63
2019-06-04 05:00:00 16.6 8 Nordeste 23 Nordeste 0 -- -- 60
2019-06-04 04:00:00 17 13 Este 23 Este 0 -- -- 58
2019-06-04 03:00:00 17.7 14 Este 21 Este 0 -- -- 54
2019-06-04 02:00:00 18.5 7 Nordeste 17 Nordeste 0 -- -- 51
2019-06-04 01:00:00 19.8 9 Nordeste 24 Sudeste 0 -- -- 48
2019-06-04 00:00:00 20.5 6 Este 20 Este 0 -- -- 47
2019-06-03 23:00:00 21.3 6 Sudeste 33 Este 0 -- -- 44
2019-06-03 22:00:00 22.8 24 Este 37 Este 0 -- -- 39
2019-06-03 21:00:00 24.1 20 Este 34 Este 0 -- -- 38
2019-06-03 20:00:00 26.1 14 Este 30 Este 0 -- -- 41
2019-06-03 19:00:00 28.2 19 Este 35 Este 0 -- -- 40
2019-06-03 18:00:00 29.5 21 Este 35 Este 0 -- -- 38
2019-06-03 17:00:00 30.7 21 Este 32 Este 0 -- -- 33
2019-06-03 16:00:00 30.1 21 Este 36 Sudeste 0 -- -- 35
2019-06-03 15:00:00 30.1 19 Este 35 Este 0 -- -- 34
2019-06-03 14:00:00 29.1 17 Este 26 Este 0 -- -- 34
2019-06-03 13:00:00 25.9 10 Nordeste 15 Nordeste 0 -- -- 39
2019-06-03 12:00:00 24.3 8 Nordeste 14 Nordeste 0 -- -- 41
2019-06-03 11:00:00 23.1 9 Nordeste 14 Nordeste 0 -- -- 44
2019-06-03 10:00:00 21.3 4 Este 13 Nordeste 0 -- -- 47
2019-06-03 09:00:00 19.7 7 Este 13 Nordeste 0 -- -- 48
2019-06-03 08:00:00 16.7 3 Este 10 Nordeste 0 -- -- 61
2019-06-03 07:00:00 15.8 4 Nordeste 21 Nordeste 0 -- -- 55
2019-06-03 06:00:00 16.5 12 Este 22 Este 0 -- -- 52
2019-06-03 05:00:00 16.3 3 Este 17 Este 0 -- -- 55
2019-06-03 04:00:00 17.3 14 Nordeste 21 Este 0 -- -- 50
2019-06-03 03:00:00 17.2 0 Calma 8 Norte 0 -- -- 53
2019-06-03 02:00:00 18.7 4 Nordeste 12 Nordeste 0 -- -- 48
2019-06-03 01:00:00 19.7 5 Nordeste 17 Este 0 -- -- 44
2019-06-03 00:00:00 20.7 5 Este 22 Este 0 -- -- 41
2019-06-02 23:00:00 22 16 Este 27 Este 0 -- -- 39
2019-06-02 22:00:00 23.4 10 Este 18 Este 0 -- -- 36
2019-06-02 21:00:00 26.1 10 Este 19 Este 0 -- -- 35
2019-06-02 20:00:00 28.6 14 Este 27 Sudeste 0 -- -- 33
2019-06-02 19:00:00 31.5 14 Sudeste 33 Este 0 -- -- 28
2019-06-02 18:00:00 31.9 19 Este 33 Este 0 -- -- 27
2019-06-02 17:00:00 32.1 22 Este 36 Nordeste 0 -- -- 28
2019-06-02 16:00:00 32.2 21 Este 32 Nordeste 0 -- -- 29
2019-06-02 15:00:00 31.3 15 Este 28 Este 0 -- -- 31
2019-06-02 14:00:00 29.9 14 Este 21 Este 0 -- -- 33
2019-06-02 13:00:00 27.8 11 Nordeste 24 Este 0 -- -- 36
2019-06-02 12:00:00 26 14 Este 23 Este 0 -- -- 39
2019-06-02 11:00:00 24.1 14 Este 21 Nordeste 0 -- -- 41
2019-06-02 10:00:00 20.9 7 Nordeste 13 Nordeste 0 -- -- 54
2019-06-02 09:00:00 19 4 Nordeste 9 Norte 0 -- -- 56
2019-06-02 08:00:00 16 4 Este 7 Este 0 -- -- 69
2019-06-02 07:00:00 13.4 3 Oeste 6 Sudeste 0 -- -- 75
2019-06-02 06:00:00 13.7 2 Oeste 6 Oeste 0 -- -- 73
2019-06-02 05:00:00 14.7 0 Calma 3 Noroeste 0 -- -- 69
2019-06-02 04:00:00 16.2 2 Este 7 Nordeste 0 -- -- 63
2019-06-02 03:00:00 17.9 5 Norte 18 Nordeste 0 -- -- 56
2019-06-02 02:00:00 18.6 11 Nordeste 15 Nordeste 0 -- -- 51
2019-06-02 01:00:00 19.3 5 Nordeste 12 Nordeste 0 -- -- 50
2019-06-02 00:00:00 20 2 Este 6 Norte 0 -- -- 49
2019-06-01 23:00:00 22.3 3 Noroeste 9 Sudoeste 0 -- -- 41
2019-06-01 22:00:00 24.3 5 Este 22 Sudeste 0 -- -- 39
2019-06-01 21:00:00 27 8 Sudeste 24 Sudeste 0 -- -- 34
2019-06-01 20:00:00 29 14 Sudeste 29 Este 0 -- -- 33
2019-06-01 19:00:00 30.2 21 Este 31 Este 0 -- -- 32
2019-06-01 18:00:00 31.5 12 Nordeste 26 Este 0 -- -- 29
2019-06-01 17:00:00 31.6 14 Este 27 Nordeste 0 -- -- 28
2019-06-01 16:00:00 31.2 17 Este 29 Este 0 -- -- 30
2019-06-01 15:00:00 30.4 10 Este 27 Este 0 -- -- 31
2019-06-01 14:00:00 29 12 Este 22 Este 0 -- -- 32
2019-06-01 13:00:00 27.3 11 Este 20 Este 0 -- -- 38
2019-06-01 12:00:00 25.1 10 Este 20 Este 0 -- -- 44
2019-06-01 11:00:00 23.1 6 Este 14 Este 0 -- -- 53
2019-06-01 10:00:00 20.6 7 Nordeste 13 Nordeste 0 -- -- 59
2019-06-01 09:00:00 18.5 6 Nordeste 8 Nordeste 0 -- -- 68
2019-06-01 08:00:00 15.9 3 Este 5 Este 0 -- -- 73
2019-06-01 07:00:00 13.2 0 Calma 6 Oeste 0 -- -- 82
2019-06-01 06:00:00 13.2 0 Calma 5 Noroeste 0 -- -- 80
2019-06-01 05:00:00 13.9 0 Calma 7 Noroeste 0 -- -- 78
2019-06-01 04:00:00 16.1 2 Sudeste 12 Nordeste 0 -- -- 70
2019-06-01 03:00:00 17 4 Nordeste 12 Nordeste 0 -- -- 67
2019-06-01 02:00:00 17 3 Nordeste 13 Nordeste 0 -- -- 65
2019-06-01 01:00:00 18 6 Nordeste 16 Nordeste 0 -- -- 63
2019-06-01 00:00:00 18.7 2 Oeste 9 Sudoeste 0 -- -- 61
2019-05-31 23:00:00 20.9 5 Oeste 9 Oeste 0 -- -- 53
2019-05-31 22:00:00 22.9 4 Sudeste 13 Nordeste 0 -- -- 49
2019-05-31 21:00:00 25.2 12 Sur 24 Este 0 -- -- 44
2019-05-31 20:00:00 27 21 Este 31 Este 0 -- -- 40
2019-05-31 19:00:00 28.4 17 Este 29 Sudeste 0 -- -- 38
2019-05-31 18:00:00 29.1 19 Este 28 Este 0 -- -- 36
2019-05-31 17:00:00 29.7 12 Nordeste 24 Este 0 -- -- 33
2019-05-31 16:00:00 29.1 10 Nordeste 24 Nordeste 0 -- -- 38
2019-05-31 15:00:00 27.9 12 Este 25 Este 0 -- -- 41
2019-05-31 14:00:00 26.8 15 Este 27 Este 0 -- -- 46
2019-05-31 13:00:00 24.9 12 Este 24 Este 0 -- -- 52
2019-05-31 12:00:00 23 7 Este 20 Este 0 -- -- 55
2019-05-31 11:00:00 21.3 13 Este 20 Este 0 -- -- 58
2019-05-31 10:00:00 19.3 11 Este 17 Este 0 -- -- 65
2019-05-31 09:00:00 17.2 7 Nordeste 14 Nordeste 0 -- -- 67
2019-05-31 08:00:00 15.4 6 Nordeste 17 Nordeste 0 -- -- 72
2019-05-31 07:00:00 12.6 8 Este 17 Nordeste 0 -- -- 82
2019-05-31 06:00:00 12.8 2 Nordeste 8 Este 0 -- -- 80
2019-05-31 05:00:00 14.4 3 Nordeste 12 Este 0 -- -- 72
2019-05-31 04:00:00 15.4 7 Nordeste 13 Este 0 -- -- 69
2019-05-31 03:00:00 16 7 Nordeste 15 Este 0 -- -- 68
2019-05-31 02:00:00 16.8 13 Nordeste 21 Este 0 -- -- 66
2019-05-31 01:00:00 17.8 4 Nordeste 18 Nordeste 0 -- -- 60
2019-05-31 00:00:00 18.8 2 Este 14 Este 0 -- -- 59
2019-05-30 23:00:00 19.7 3 Norte 9 Nordeste 0 -- -- 58
2019-05-30 22:00:00 22.2 5 Nordeste 16 Nordeste 0 -- -- 51
2019-05-30 21:00:00 24.6 12 Nordeste 22 Nordeste 0 -- -- 46
2019-05-30 20:00:00 27.8 7 Nordeste 11 Norte 0 -- -- 32
2019-05-30 19:00:00 28.3 7 Nordeste 14 Nordeste 0 -- -- 30
2019-05-30 18:00:00 28.5 6 Noroeste 14 Sudoeste 0 -- -- 31
2019-05-30 17:00:00 28.3 6 Nordeste 18 Noroeste 0 -- -- 30
2019-05-30 16:00:00 27.4 9 Sudeste 23 Sur 0 -- -- 31
2019-05-30 15:00:00 26.3 6 Sudoeste 17 Sudoeste 0 -- -- 33
2019-05-30 14:00:00 25.1 5 Sur 19 Sur 0 -- -- 36
2019-05-30 13:00:00 23.8 6 Sur 17 Nordeste 0 -- -- 39
2019-05-30 12:00:00 21.6 7 Nordeste 13 Nordeste 0 -- -- 47
2019-05-30 11:00:00 19.1 4 Este 13 Este 0 -- -- 56
2019-05-30 10:00:00 17.8 6 Nordeste 10 Nordeste 0 -- -- 59
2019-05-30 09:00:00 15.8 3 Norte 10 Sur 0 -- -- 63
2019-05-30 08:00:00 12 6 Sudoeste 13 Sudoeste 0 -- -- 74
2019-05-30 07:00:00 9.9 9 Oeste 13 Sudoeste 0 -- -- 82
2019-05-30 06:00:00 9.8 4 Oeste 8 Oeste 0 -- -- 83
2019-05-30 05:00:00 10.5 6 Oeste 8 Sudoeste 0 -- -- 80
2019-05-30 04:00:00 11.2 7 Sudoeste 11 Oeste 0 -- -- 76
2019-05-30 03:00:00 12.3 8 Oeste 12 Oeste 0 -- -- 71
2019-05-30 02:00:00 13.6 6 Oeste 15 Sudoeste 0 -- -- 66
2019-05-30 01:00:00 15.3 3 Oeste 16 Oeste 0 -- -- 59
2019-05-30 00:00:00 17.1 15 Noroeste 39 Noroeste 0 -- -- 52
2019-05-29 23:00:00 18.3 24 Oeste 39 Oeste 0 -- -- 49
2019-05-29 22:00:00 20.2 15 Oeste 36 Oeste 0 -- -- 43
2019-05-29 21:00:00 21.5 20 Oeste 33 Oeste 0 -- -- 40
2019-05-29 20:00:00 23.2 21 Oeste 41 Oeste 0 -- -- 37
2019-05-29 19:00:00 24.3 27 Oeste 39 Oeste 0 -- -- 30
2019-05-29 18:00:00 25.2 20 Oeste 36 Oeste 0 -- -- 28
2019-05-29 17:00:00 24.9 17 Oeste 30 Oeste 0 -- -- 27
2019-05-29 16:00:00 24.4 15 Oeste 31 Oeste 0 -- -- 28
2019-05-29 15:00:00 23.7 16 Oeste 33 Oeste 0 -- -- 28
2019-05-29 14:00:00 22.3 18 Noroeste 31 Oeste 0 -- -- 30
2019-05-29 13:00:00 21.5 9 Noroeste 33 Oeste 0 -- -- 33
2019-05-29 12:00:00 20 15 Oeste 27 Noroeste 0 -- -- 35
2019-05-29 11:00:00 18.4 15 Noroeste 30 Oeste 0 -- -- 43
2019-05-29 10:00:00 16.8 14 Noroeste 39 Noroeste 0 -- -- 50
2019-05-29 09:00:00 14.8 21 Noroeste 34 Noroeste 0 -- -- 56
2019-05-29 08:00:00 13.2 11 Noroeste 36 Oeste 0 -- -- 62
2019-05-29 07:00:00 11.9 24 Noroeste 44 Oeste 0 -- -- 67
2019-05-29 06:00:00 12 27 Oeste 44 Noroeste 0 -- -- 66
2019-05-29 05:00:00 12.2 26 Noroeste 49 Oeste 0 -- -- 65
2019-05-29 04:00:00 12.5 32 Oeste 51 Noroeste 0 -- -- 63
2019-05-29 03:00:00 12.9 30 Oeste 50 Noroeste 0 -- -- 61
2019-05-29 02:00:00 13.2 30 Oeste 54 Oeste 0 -- -- 61
2019-05-29 01:00:00 13.8 31 Oeste 56 Oeste 0 -- -- 58
2019-05-29 00:00:00 14.4 33 Oeste 62 Oeste 0 -- -- 56
2019-05-28 23:00:00 15.3 33 Oeste 63 Oeste 0 -- -- 51
2019-05-28 22:00:00 16.3 39 Oeste 72 Oeste 0 -- -- 47
2019-05-28 21:00:00 17.4 42 Oeste 75 Oeste 0 -- -- 45
2019-05-28 20:00:00 19.1 40 Noroeste 77 Oeste 0 -- -- 39
2019-05-28 19:00:00 20.1 42 Oeste 79 Oeste 0 -- -- 41
2019-05-28 18:00:00 21.8 43 Oeste 69 Noroeste 0 -- -- 37
2019-05-28 17:00:00 22.6 35 Oeste 63 Oeste 0 -- -- 35
2019-05-28 16:00:00 22.5 36 Oeste 56 Oeste 0 -- -- 38
2019-05-28 15:00:00 22.4 33 Oeste 50 Oeste 0 -- -- 38
2019-05-28 14:00:00 22.7 25 Oeste 41 Oeste 0 -- -- 38
2019-05-28 13:00:00 20.9 24 Oeste 42 Noroeste 0 -- -- 39
2019-05-28 12:00:00 20.5 22 Oeste 36 Oeste 0 -- -- 40
2019-05-28 11:00:00 17.9 27 Oeste 42 Oeste 0 -- -- 49
2019-05-28 10:00:00 16.2 21 Oeste 35 Oeste 0 -- -- 53
2019-05-28 09:00:00 14.5 23 Oeste 41 Oeste 0 -- -- 58
2019-05-28 08:00:00 13.9 23 Oeste 38 Oeste 0 -- -- 60
2019-05-28 07:00:00 12.6 10 Oeste 28 Oeste 0 -- -- 64
2019-05-28 06:00:00 12.8 9 Oeste 28 Sudoeste 0 -- -- 61
2019-05-28 05:00:00 13.4 12 Oeste 31 Oeste 0 -- -- 59
2019-05-28 04:00:00 14.2 15 Oeste 34 Oeste 0 -- -- 61
2019-05-28 03:00:00 15 21 Oeste 49 Oeste 0 -- -- 59
2019-05-28 02:00:00 15.7 33 Oeste 51 Oeste 0 -- -- 54
2019-05-28 01:00:00 16.4 27 Oeste 51 Oeste 0 -- -- 57
2019-05-28 00:00:00 17.3 31 Oeste 57 Oeste 0 -- -- 61
2019-05-27 23:00:00 18.7 33 Oeste 56 Oeste 0 -- -- 59
2019-05-27 22:00:00 20.4 36 Oeste 58 Oeste 0 -- -- 54
2019-05-27 21:00:00 22.1 30 Oeste 48 Oeste 0 -- -- 49
2019-05-27 20:00:00 24 23 Oeste 48 Oeste 0 -- -- 46
2019-05-27 19:00:00 26 26 Oeste 39 Oeste 0 -- -- 43
2019-05-27 18:00:00 26.5 17 Oeste 34 Oeste 0 -- -- 41
2019-05-27 17:00:00 26.3 18 Oeste 36 Oeste 0 -- -- 41
2019-05-27 16:00:00 25.2 13 Noroeste 31 Noroeste 0 -- -- 42
2019-05-27 15:00:00 24.9 12 Sudoeste 27 Noroeste 0 -- -- 44
2019-05-27 14:00:00 24.1 7 Sur 21 Oeste 0 -- -- 45
2019-05-27 13:00:00 22.4 7 Oeste 25 Noroeste 0 -- -- 50
2019-05-27 12:00:00 20.2 9 Oeste 24 Oeste 0 -- -- 55
2019-05-27 11:00:00 18.5 10 Oeste 22 Oeste 0 -- -- 60
2019-05-27 10:00:00 16.3 12 Oeste 25 Noroeste 0 -- -- 66
2019-05-27 09:00:00 15.1 13 Oeste 21 Oeste 0 -- -- 70
2019-05-27 08:00:00 12.9 6 Sudoeste 10 Oeste 0 -- -- 79
2019-05-27 07:00:00 10.5 9 Oeste 14 Oeste 0 -- -- 88
2019-05-27 06:00:00 10.6 9 Oeste 13 Oeste 0 -- -- 87
2019-05-27 05:00:00 11.8 10 Sudoeste 15 Sudoeste 0 -- -- 83
2019-05-27 04:00:00 12.4 10 Sudoeste 18 Sudoeste 0 -- -- 81
2019-05-27 03:00:00 13.2 9 Sudoeste 15 Sudoeste 0 -- -- 78
2019-05-27 02:00:00 14.7 10 Sudoeste 19 Sudoeste 0 -- -- 71
2019-05-27 01:00:00 15.5 10 Oeste 19 Oeste 0 -- -- 68
2019-05-27 00:00:00 16.6 14 Oeste 24 Oeste 0 -- -- 64
2019-05-26 23:00:00 18 7 Oeste 33 Oeste 0 -- -- 60
2019-05-26 22:00:00 19.6 22 Oeste 40 Oeste 0 -- -- 54
2019-05-26 21:00:00 21.8 22 Oeste 39 Oeste 0 -- -- 48
2019-05-26 20:00:00 24.3 21 Oeste 40 Oeste 0 -- -- 42
2019-05-26 19:00:00 25.8 26 Oeste 42 Oeste 0 -- -- 36
2019-05-26 18:00:00 26.2 11 Oeste 30 Oeste 0 -- -- 34
2019-05-26 17:00:00 26 12 Oeste 30 Noroeste 0 -- -- 35
2019-05-26 16:00:00 25 17 Oeste 28 Oeste 0 -- -- 40
2019-05-26 15:00:00 24.2 13 Sudoeste 29 Oeste 0 -- -- 40
2019-05-26 14:00:00 22.7 10 Noroeste 27 Noroeste 0 -- -- 44
2019-05-26 13:00:00 21.5 14 Noroeste 27 Noroeste 0 -- -- 47
2019-05-26 12:00:00 19.7 17 Noroeste 26 Noroeste 0 -- -- 50
2019-05-26 11:00:00 17.9 14 Oeste 24 Oeste 0 -- -- 57
2019-05-26 10:00:00 16.1 14 Oeste 23 Oeste 0 -- -- 63
2019-05-26 09:00:00 14.4 16 Oeste 24 Oeste 0 -- -- 68
2019-05-26 08:00:00 12.2 11 Sudoeste 17 Sudoeste 0 -- -- 79
2019-05-26 07:00:00 10.4 10 Sudoeste 17 Sudoeste 0 -- -- 86
2019-05-26 06:00:00 10.7 11 Sudoeste 14 Sudoeste 0 -- -- 85
2019-05-26 05:00:00 11.3 7 Sudoeste 12 Sudoeste 0 -- -- 82
2019-05-26 04:00:00 12.4 7 Sudoeste 17 Sudoeste 0 -- -- 76
2019-05-26 03:00:00 13.2 7 Sudoeste 20 Oeste 0 -- -- 74
2019-05-26 02:00:00 13.8 10 Sudoeste 26 Sudoeste 0 -- -- 73
2019-05-26 01:00:00 14.5 16 Sudoeste 22 Oeste 0 -- -- 71
2019-05-26 00:00:00 15.6 12 Sudoeste 37 Oeste 0 -- -- 68
2019-05-25 23:00:00 17 24 Oeste 36 Oeste 0 -- -- 63
2019-05-25 22:00:00 18.7 18 Oeste 35 Noroeste 0 -- -- 59
2019-05-25 21:00:00 19.5 13 Sudoeste 24 Sur 0 -- -- 65
2019-05-25 20:00:00 19.1 12 Oeste 15 Sudoeste 0 -- -- 72
2019-05-25 19:00:00 18.6 6 Sur 32 Noroeste 0.4 -- -- 73
2019-05-25 18:00:00 24.5 19 Oeste 32 Oeste 0 -- -- 42
2019-05-25 17:00:00 24.4 9 Sudoeste 19 Noroeste 0 -- -- 42
2019-05-25 16:00:00 24.7 9 Noroeste 24 Oeste 0 -- -- 42
2019-05-25 15:00:00 24.4 5 Sudoeste 19 Oeste 0 -- -- 44
2019-05-25 14:00:00 22.9 10 Noroeste 24 Oeste 0 -- -- 45
2019-05-25 13:00:00 22 7 Noroeste 21 Noroeste 0 -- -- 51
2019-05-25 12:00:00 20.1 9 Noroeste 21 Oeste 0 -- -- 58
2019-05-25 11:00:00 18.4 10 Oeste 23 Oeste 0 -- -- 64
2019-05-25 10:00:00 16.6 16 Noroeste 28 Noroeste 0 -- -- 68
2019-05-25 09:00:00 14.4 14 Oeste 26 Noroeste 0 -- -- 75
2019-05-25 08:00:00 13.6 14 Oeste 23 Oeste 0 -- -- 78
2019-05-25 07:00:00 13.3 5 Oeste 19 Noroeste 0 -- -- 78
2019-05-25 06:00:00 13.6 12 Oeste 24 Noroeste 0 -- -- 77
2019-05-25 05:00:00 13.8 9 Oeste 28 Oeste 0 -- -- 78
2019-05-25 04:00:00 13.9 20 Oeste 29 Oeste 0 -- -- 79
2019-05-25 03:00:00 14.5 9 Sudoeste 15 Sudoeste 0 -- -- 79
2019-05-25 02:00:00 14.6 8 Sudoeste 10 Sudoeste 0 -- -- 81
2019-05-25 01:00:00 15 8 Sudoeste 10 Sudoeste 0 -- -- 79
2019-05-25 00:00:00 16.1 4 Oeste 11 Oeste 0 -- -- 86
2019-05-24 23:00:00 16.1 4 Oeste 10 Sudoeste 0 -- -- 84
2019-05-24 22:00:00 16.4 9 Oeste 12 Oeste 0 -- -- 79
2019-05-24 21:00:00 16.8 4 Este 9 Sudeste 0 -- -- 78
2019-05-24 20:00:00 16.9 7 Este 14 Este 0 -- -- 78
2019-05-24 19:00:00 17.2 10 Este 17 Este 0 -- -- 82
2019-05-24 18:00:00 17.4 8 Nordeste 14 Nordeste 0 -- -- 80
2019-05-24 17:00:00 16.7 10 Este 24 Nordeste 0 -- -- 85
2019-05-24 16:00:00 16.3 5 Norte 19 Nordeste 1.6 -- -- 89
2019-05-24 15:00:00 17.7 9 Noroeste 19 Oeste 0.8 -- -- 80
2019-05-24 14:00:00 17.2 12 Oeste 18 Sudoeste 0 -- -- 83
2019-05-24 13:00:00 15.1 12 Sudoeste 24 Oeste 1 -- -- 91
2019-05-24 12:00:00 14.4 16 Oeste 28 Noroeste 1 -- -- 91
2019-05-24 11:00:00 14.2 4 Oeste 18 Oeste 4.2 -- -- 93
2019-05-24 10:00:00 14 10 Oeste 18 Oeste 2.4 -- -- 93
2019-05-24 09:00:00 14.2 10 Oeste 18 Noroeste 0.8 -- -- 93
2019-05-24 08:00:00 14.6 9 Oeste 14 Oeste 3.8 -- -- 94
2019-05-24 07:00:00 15 6 Sudoeste 9 Sudoeste 3 -- -- 93
2019-05-24 06:00:00 15.5 6 Oeste 26 Noroeste 1.6 -- -- 90
2019-05-24 05:00:00 16.7 2 Oeste 8 Oeste 0.8 -- -- 91
2019-05-24 04:00:00 16.7 8 Oeste 14 Oeste 0 -- -- 86
2019-05-24 03:00:00 16.5 3 Sudeste 19 Nordeste 0 -- -- 88
2019-05-24 02:00:00 16.9 14 Nordeste 26 Este 1 -- -- 90
2019-05-24 01:00:00 17.7 4 Nordeste 13 Noroeste 1.2 -- -- 88
2019-05-24 00:00:00 18.7 3 Sudeste 36 Sudoeste 1 -- -- 77
2019-05-23 23:00:00 21.2 18 Oeste 25 Oeste 0 -- -- 66
2019-05-23 22:00:00 23.5 6 Oeste 21 Noroeste 0 -- -- 49
2019-05-23 21:00:00 25.1 6 Noroeste 22 Sudeste 0 -- -- 49
2019-05-23 20:00:00 27.5 13 Este 23 Este 0 -- -- 39
2019-05-23 19:00:00 28.6 8 Este 14 Este 0 -- -- 30
2019-05-23 18:00:00 29.1 10 Este 17 Este 0 -- -- 29
2019-05-23 17:00:00 28.9 10 Este 15 Este 0 -- -- 30
2019-05-23 16:00:00 29 8 Este 19 Este 0 -- -- 30
2019-05-23 15:00:00 27.7 8 Nordeste 17 Nordeste 0 -- -- 30
2019-05-23 14:00:00 26.8 8 Nordeste 17 Nordeste 0 -- -- 30
2019-05-23 13:00:00 24.8 8 Nordeste 17 Nordeste 0 -- -- 42
2019-05-23 12:00:00 23 10 Nordeste 17 Nordeste 0 -- -- 48
2019-05-23 11:00:00 20.7 9 Nordeste 14 Este 0 -- -- 52
2019-05-23 10:00:00 18.4 8 Nordeste 12 Nordeste 0 -- -- 55
2019-05-23 09:00:00 15.4 8 Este 12 Nordeste 0 -- -- 65
2019-05-23 08:00:00 13.1 0 Calma 3 Sudoeste 0 -- -- 72
2019-05-23 07:00:00 9.4 2 Noroeste 5 Este 0 -- -- 85
2019-05-23 06:00:00 9.9 0 Calma 10 Este 0 -- -- 83
2019-05-23 05:00:00 10.6 4 Nordeste 6 Nordeste 0 -- -- 80
2019-05-23 04:00:00 11.7 4 Nordeste 5 Nordeste 0 -- -- 77
2019-05-23 03:00:00 13.3 0 Calma 6 Oeste 0 -- -- 75
2019-05-23 02:00:00 14.4 0 Calma 4 Noroeste 0 -- -- 71
2019-05-23 01:00:00 15.2 4 Este 10 Noroeste 0 -- -- 63
2019-05-23 00:00:00 17.6 8 Oeste 12 Oeste 0 -- -- 56
2019-05-22 23:00:00 19.7 3 Sudeste 21 Este 0 -- -- 52
2019-05-22 22:00:00 21.6 14 Este 21 Este 0 -- -- 44
2019-05-22 21:00:00 24.5 5 Norte 9 Norte 0 -- -- 34
2019-05-22 20:00:00 25.9 7 Nordeste 14 Este 0 -- -- 31
2019-05-22 19:00:00 26.4 11 Este 14 Este 0 -- -- 29
2019-05-22 18:00:00 26.3 6 Nordeste 20 Este 0 -- -- 29
2019-05-22 17:00:00 26 9 Nordeste 21 Este 0 -- -- 29
2019-05-22 16:00:00 25.7 12 Nordeste 20 Nordeste 0 -- -- 31
2019-05-22 15:00:00 25 4 Nordeste 21 Este 0 -- -- 33
2019-05-22 14:00:00 23.9 9 Sudoeste 20 Oeste 0 -- -- 35
2019-05-22 13:00:00 22.6 9 Sudeste 18 Este 0 -- -- 38
2019-05-22 12:00:00 19.9 7 Sudoeste 18 Sudeste 0 -- -- 46
2019-05-22 11:00:00 18.6 10 Sudeste 18 Este 0 -- -- 52
2019-05-22 10:00:00 17 6 Este 12 Noroeste 0 -- -- 62
2019-05-22 09:00:00 14.7 4 Sudoeste 12 Oeste 0 -- -- 68
2019-05-22 08:00:00 12.3 5 Sudoeste 9 Sudoeste 0 -- -- 76
2019-05-22 07:00:00 8.8 2 Oeste 10 Oeste 0 -- -- 78
2019-05-22 06:00:00 9.2 6 Oeste 12 Oeste 0 -- -- 77
2019-05-22 05:00:00 10.7 11 Oeste 15 Sudoeste 0 -- -- 73
2019-05-22 04:00:00 11.4 5 Oeste 9 Oeste 0 -- -- 74
2019-05-22 03:00:00 12.8 0 Calma 10 Nordeste 0 -- -- 70
2019-05-22 02:00:00 13.5 3 Oeste 8 Noroeste 0 -- -- 66
2019-05-22 01:00:00 15.8 0 Calma 8 Norte 0 -- -- 53
2019-05-22 00:00:00 15.9 4 Oeste 9 Oeste 0 -- -- 50
2019-05-21 23:00:00 17 0 Calma 15 Noroeste 0 -- -- 42
2019-05-21 22:00:00 18.4 6 Noroeste 9 Oeste 0 -- -- 36
2019-05-21 21:00:00 22 4 Noroeste 12 Noroeste 0 -- -- 29
2019-05-21 20:00:00 25.4 10 Noroeste 15 Oeste 0 -- -- 22
2019-05-21 19:00:00 25.4 7 Nordeste 19 Oeste 0 -- -- 24
2019-05-21 18:00:00 26 6 Norte 20 Noroeste 0 -- -- 27
2019-05-21 17:00:00 25.7 13 Noroeste 28 Nordeste 0 -- -- 30
2019-05-21 16:00:00 25.1 8 Nordeste 18 Nordeste 0 -- -- 32
2019-05-21 15:00:00 24.5 10 Nordeste 19 Nordeste 0 -- -- 33
2019-05-21 14:00:00 23.4 12 Sudoeste 22 Sudeste 0 -- -- 32
2019-05-21 13:00:00 21.9 12 Sur 25 Sur 0 -- -- 37
2019-05-21 12:00:00 20.2 11 Sur 23 Sudoeste 0 -- -- 44
2019-05-21 11:00:00 17.9 4 Sur 14 Sudoeste 0 -- -- 51
2019-05-21 10:00:00 16.2 6 Sur 13 Oeste 0 -- -- 58
2019-05-21 09:00:00 13.2 9 Oeste 16 Oeste 0 -- -- 69
2019-05-21 08:00:00 11.9 3 Sudeste 8 Nordeste 0 -- -- 72
2019-05-21 07:00:00 8.9 3 Sur 8 Sudoeste 0 -- -- 80
2019-05-21 06:00:00 8.3 3 Oeste 11 Noroeste 0 -- -- 77
2019-05-21 05:00:00 8.7 3 Oeste 9 Noroeste 0 -- -- 73
2019-05-21 04:00:00 10.1 2 Sudeste 11 Oeste 0 -- -- 67
2019-05-21 03:00:00 10.5 6 Noroeste 10 Este 0 -- -- 67
2019-05-21 02:00:00 12.1 3 Sudoeste 18 Este 0 -- -- 59
2019-05-21 01:00:00 12.4 3 Oeste 10 Oeste 0 -- -- 55
2019-05-21 00:00:00 13.4 5 Sudoeste 19 Sudoeste 0 -- -- 52